createdAt,value
2022-11-05T00:01:56.685Z,99.05
2022-11-05T00:07:23.823Z,98.92
2022-11-05T00:12:43.982Z,100.00
2022-11-05T00:17:45.480Z,100.00
2022-11-05T00:23:05.367Z,100.00
2022-11-05T00:28:06.848Z,99.18
2022-11-05T00:33:08.543Z,100.00
2022-11-05T00:38:10.361Z,99.73
2022-11-05T00:43:30.736Z,99.20
2022-11-05T00:48:50.866Z,99.84
2022-11-05T00:53:52.362Z,99.57
2022-11-05T00:58:55.688Z,99.10
2022-11-05T01:03:57.204Z,100.00
2022-11-05T01:08:58.734Z,99.14
2022-11-05T01:14:08.467Z,100.00
2022-11-05T01:19:11.247Z,99.47
2022-11-05T01:24:12.745Z,99.31
2022-11-05T01:29:15.209Z,99.50
2022-11-05T01:34:16.782Z,99.13
2022-11-05T01:39:18.261Z,99.49
2022-11-05T01:44:52.962Z,98.78
2022-11-05T01:49:55.394Z,99.35
2022-11-05T01:54:57.037Z,99.57
2022-11-05T02:00:00.123Z,99.51
2022-11-05T02:18:41.295Z,98.50
2022-11-05T02:24:01.615Z,98.33
2022-11-05T02:29:24.495Z,98.78
2022-11-05T02:34:33.005Z,99.22
2022-11-05T02:39:47.533Z,99.02
2022-11-05T02:45:23.971Z,99.34
2022-11-05T02:50:54.494Z,99.22
2022-11-05T02:56:20.501Z,99.91
2022-11-05T03:01:22.068Z,99.33
2022-11-05T03:06:35.363Z,99.14
2022-11-05T03:12:19.502Z,100.00
2022-11-05T03:18:03.503Z,99.42
2022-11-05T03:23:20.848Z,99.09
2022-11-05T03:28:24.931Z,99.95
2022-11-05T03:33:28.962Z,100.00
2022-11-05T03:38:35.597Z,100.00
2022-11-05T03:43:41.501Z,100.00
2022-11-05T03:48:47.637Z,100.00
2022-11-05T03:53:54.030Z,100.00
2022-11-05T03:58:58.886Z,100.00
2022-11-05T04:04:00.734Z,100.00
2022-11-05T04:09:20.857Z,100.00
2022-11-05T04:14:22.602Z,100.00
2022-11-05T04:19:42.503Z,99.70
2022-11-05T04:24:43.967Z,100.00
2022-11-05T04:30:04.049Z,99.53
2022-11-05T04:35:05.773Z,98.93
2022-11-05T04:40:07.826Z,100.00
2022-11-05T04:45:09.344Z,99.98
2022-11-05T04:50:12.131Z,99.70
2022-11-05T04:55:13.626Z,99.06
2022-11-05T05:00:15.535Z,99.59
2022-11-05T05:05:17.234Z,99.28
2022-11-05T05:10:18.804Z,99.62
2022-11-05T05:15:20.358Z,99.20
2022-11-05T05:20:40.170Z,98.48
2022-11-05T05:25:41.652Z,99.64
2022-11-05T05:30:43.141Z,100.00
2022-11-05T05:35:44.823Z,99.92
2022-11-05T05:40:46.363Z,99.45
2022-11-05T05:45:47.826Z,100.00
2022-11-05T05:50:49.342Z,100.00
2022-11-05T05:55:53.610Z,100.00
2022-11-05T06:00:55.499Z,99.96
2022-11-05T06:06:05.534Z,100.00
2022-11-05T06:11:07.632Z,99.71
2022-11-05T06:16:10.050Z,99.95
2022-11-05T06:21:15.086Z,100.00
2022-11-05T06:26:18.137Z,100.00
2022-11-05T06:31:19.711Z,100.00
2022-11-05T06:36:21.290Z,99.65
2022-11-05T06:41:22.867Z,100.00
2022-11-05T06:46:24.392Z,100.00
2022-11-05T06:51:27.095Z,100.00
2022-11-05T06:56:28.656Z,100.00
2022-11-05T07:01:30.330Z,100.00
2022-11-05T07:06:36.829Z,99.84
2022-11-05T07:11:38.695Z,99.16
2022-11-05T07:16:40.504Z,98.76
2022-11-05T07:21:42.031Z,98.11
2022-11-05T07:26:43.563Z,97.54
2022-11-05T07:31:46.929Z,96.86
2022-11-05T07:36:48.519Z,97.68
2022-11-05T07:41:52.281Z,97.43
2022-11-05T07:46:53.801Z,96.46
2022-11-05T07:51:55.347Z,96.38
2022-11-05T07:56:56.817Z,95.54
2022-11-05T08:01:58.396Z,95.65
2022-11-05T08:07:00.127Z,96.13
2022-11-05T08:12:03.183Z,95.75
2022-11-05T08:17:04.992Z,94.80
2022-11-05T08:22:06.467Z,94.62
2022-11-05T08:27:07.958Z,94.92
2022-11-05T08:32:09.489Z,94.75
2022-11-05T08:37:11.383Z,94.33
2022-11-05T08:42:12.901Z,92.93
2022-11-05T08:47:14.628Z,92.78
2022-11-05T08:52:16.249Z,92.35
2022-11-05T08:57:17.760Z,93.04
2022-11-05T09:02:19.363Z,93.66
2022-11-05T09:07:22.856Z,93.41
2022-11-05T09:12:24.412Z,92.64
2022-11-05T09:17:25.953Z,93.14
2022-11-05T09:22:27.430Z,92.71
2022-11-05T09:27:28.936Z,92.50
2022-11-05T09:32:31.649Z,92.77
2022-11-05T09:37:33.252Z,91.69
2022-11-05T09:42:39.649Z,91.36
2022-11-05T09:47:45.342Z,91.43
2022-11-05T09:52:46.971Z,90.13
2022-11-05T09:57:53.001Z,90.36
2022-11-05T10:03:06.425Z,89.74
2022-11-05T10:08:16.919Z,90.34
2022-11-05T10:13:37.330Z,89.54
2022-11-05T10:18:44.724Z,88.47
2022-11-05T10:23:47.491Z,89.20
2022-11-05T10:28:49.192Z,88.94
2022-11-05T10:33:53.724Z,87.72
2022-11-05T10:39:00.654Z,87.00
2022-11-05T10:44:17.633Z,86.69
2022-11-05T10:49:41.527Z,86.31
2022-11-05T10:54:43.181Z,86.08
2022-11-05T10:59:44.679Z,84.98
2022-11-05T11:04:52.306Z,85.76
2022-11-05T11:09:53.935Z,84.24
2022-11-05T11:15:16.139Z,84.01
2022-11-05T11:20:29.282Z,83.74
2022-11-05T11:25:54.690Z,83.25
2022-11-05T11:31:09.708Z,84.27
2022-11-05T11:36:12.008Z,83.66
2022-11-05T11:41:25.829Z,84.11
2022-11-05T11:46:32.667Z,81.43
2022-11-05T11:51:48.142Z,81.44
2022-11-05T11:56:51.539Z,81.25
2022-11-05T12:01:55.817Z,81.51
2022-11-05T12:07:38.823Z,81.89
2022-11-05T12:12:56.203Z,81.90
2022-11-05T12:18:04.703Z,80.62
2022-11-05T12:23:15.368Z,80.50
2022-11-05T12:28:57.841Z,79.58
2022-11-05T12:34:23.516Z,77.38
2022-11-05T12:39:34.214Z,78.52
2022-11-05T12:45:02.444Z,78.29
2022-11-05T12:50:24.739Z,77.47
2022-11-05T12:55:31.344Z,78.27
2022-11-05T13:00:33.204Z,78.92
2022-11-05T13:05:36.244Z,78.92
2022-11-05T13:10:51.912Z,78.63
2022-11-05T13:16:02.046Z,78.76
2022-11-05T13:21:06.105Z,78.22
2022-11-05T13:26:19.891Z,77.96
2022-11-05T13:31:29.426Z,77.79
2022-11-05T13:36:52.805Z,78.00
2022-11-05T13:42:11.633Z,76.94
2022-11-05T13:47:13.075Z,75.53
2022-11-05T13:52:23.309Z,75.20
2022-11-05T13:57:43.379Z,76.08
2022-11-05T14:02:54.974Z,76.20
2022-11-05T14:07:58.996Z,77.65
2022-11-05T14:13:06.596Z,77.91
2022-11-05T14:18:47.380Z,78.16
2022-11-05T14:23:51.177Z,78.89
2022-11-05T14:28:58.544Z,78.74
2022-11-05T14:34:08.208Z,79.22
2022-11-05T14:39:13.356Z,78.87
2022-11-05T14:44:15.361Z,79.15
2022-11-05T14:49:29.214Z,79.57
2022-11-05T14:54:40.590Z,80.00
2022-11-05T14:59:52.706Z,80.13
2022-11-05T15:05:35.519Z,80.81
2022-11-05T15:10:37.472Z,80.82
2022-11-05T15:15:42.708Z,81.60
2022-11-05T15:20:47.525Z,81.63
2022-11-05T15:26:09.716Z,82.41
2022-11-05T15:31:13.860Z,81.86
2022-11-05T15:36:29.801Z,81.23
2022-11-05T15:41:34.289Z,80.50
2022-11-05T15:46:35.777Z,81.10
2022-11-05T15:51:37.268Z,81.30
2022-11-05T15:56:45.164Z,82.16
2022-11-05T16:01:52.984Z,83.25
2022-11-05T16:06:58.329Z,83.83
2022-11-05T16:12:18.119Z,84.45
2022-11-05T16:17:22.577Z,85.62
2022-11-05T16:22:24.379Z,85.26
2022-11-05T16:27:25.867Z,84.79
2022-11-05T16:32:31.212Z,84.05
2022-11-05T16:37:40.987Z,85.86
2022-11-05T16:42:42.897Z,86.61
2022-11-05T16:47:45.159Z,87.65
2022-11-05T16:52:47.133Z,88.73
2022-11-05T16:57:51.665Z,87.83
2022-11-05T17:02:53.394Z,88.23
2022-11-05T17:07:55.284Z,87.42
2022-11-05T17:12:57.041Z,89.25
2022-11-05T17:17:59.469Z,89.25
2022-11-05T17:23:01.708Z,88.81
2022-11-05T17:28:03.718Z,90.84
2022-11-05T17:33:05.641Z,90.76
2022-11-05T17:38:07.611Z,90.02
2022-11-05T17:43:09.328Z,89.52
2022-11-05T17:48:11.366Z,89.01
2022-11-05T17:53:13.646Z,89.07
2022-11-05T17:58:15.814Z,90.03
2022-11-05T18:03:17.439Z,89.83
2022-11-05T18:08:18.981Z,90.86
2022-11-05T18:13:20.448Z,90.46
2022-11-05T18:18:22.162Z,90.04
2022-11-05T18:23:23.669Z,88.50
2022-11-05T18:28:25.427Z,87.48
2022-11-05T18:33:26.957Z,87.14
2022-11-05T18:38:28.769Z,86.73
2022-11-05T18:43:30.281Z,86.68
2022-11-05T18:48:32.271Z,87.05
2022-11-05T18:53:33.766Z,87.00
2022-11-05T18:58:35.777Z,87.01
2022-11-05T19:03:37.318Z,87.74
2022-11-05T19:08:38.855Z,88.73
2022-11-05T19:13:40.684Z,88.61
2022-11-05T19:18:42.661Z,87.72
2022-11-05T19:23:44.208Z,87.72
2022-11-05T19:28:45.943Z,88.56
2022-11-05T19:33:48.887Z,89.11
2022-11-05T19:38:58.161Z,88.62
2022-11-05T19:44:01.530Z,88.33
2022-11-05T19:49:03.221Z,88.99
2022-11-05T19:54:05.385Z,88.61
2022-11-05T19:59:07.084Z,88.30
2022-11-05T20:04:09.678Z,88.41
2022-11-05T20:09:22.250Z,88.43
2022-11-05T20:14:25.286Z,88.63
2022-11-05T20:19:26.808Z,88.62
2022-11-05T20:24:28.429Z,88.48
2022-11-05T20:29:35.274Z,88.63
2022-11-05T20:34:37.463Z,88.25
2022-11-05T20:39:39.035Z,88.59
2022-11-05T20:44:40.580Z,88.57
2022-11-05T20:49:42.752Z,89.42
2022-11-05T20:54:44.579Z,89.81
2022-11-05T20:59:46.060Z,89.08
2022-11-05T21:04:47.665Z,91.06
2022-11-05T21:09:49.199Z,88.93
2022-11-05T21:14:51.604Z,88.70
2022-11-05T21:19:53.206Z,88.09
2022-11-05T21:24:56.764Z,88.22
2022-11-05T21:29:58.250Z,88.81
2022-11-05T21:34:59.823Z,88.68
2022-11-05T21:40:01.425Z,88.30
2022-11-05T21:45:02.938Z,88.13
2022-11-05T21:50:04.655Z,88.29
2022-11-05T21:55:29.760Z,88.24
2022-11-05T22:00:31.273Z,89.08
2022-11-05T22:05:32.816Z,87.91
2022-11-05T22:10:34.323Z,88.49
2022-11-05T22:15:35.810Z,88.64
2022-11-05T22:20:38.805Z,88.36
2022-11-05T22:25:40.304Z,88.65
2022-11-05T22:30:41.796Z,89.14
2022-11-05T22:35:43.325Z,89.07
2022-11-05T22:40:44.858Z,88.99
2022-11-05T22:45:46.365Z,89.64
2022-11-05T22:50:47.864Z,89.73
2022-11-05T22:55:49.375Z,89.88
2022-11-05T23:00:50.935Z,90.20
2022-11-05T23:06:03.421Z,90.05
2022-11-05T23:11:28.261Z,90.20
2022-11-05T23:16:55.663Z,90.70
2022-11-05T23:22:15.939Z,90.20
2022-11-05T23:27:17.425Z,90.54
2022-11-05T23:32:24.648Z,90.57
2022-11-05T23:37:49.042Z,90.21
2022-11-05T23:43:09.534Z,90.48
2022-11-05T23:48:22.898Z,90.79
2022-11-05T23:53:24.449Z,90.10
2022-11-05T23:58:25.933Z,89.43
